Time;durP1;ratioP1;P1;durP2;ratioP2;P2;SDS_P1;SDS_P2;PMS_P1;PMS_P2;Temp;Humidity;BMP_temperature;BMP_pressure;BME280_temperature;BME280_humidity;BME280_pressure;Samples;Min_cycle;Max_cycle;Signal;HPM_P1;HPM_P2
2023/06/04 00:01:46;;;;;;;5.25;3.10;;;;;;;;;;4874156;29;20049;-71
2023/06/04 00:04:13;;;;;;;5.15;3.10;;;;;;;;;;4886360;28;20048;-71
2023/06/04 00:06:39;;;;;;;7.00;3.35;;;;;;;;;;4868316;28;20609;-72
2023/06/04 00:09:04;;;;;;;11.20;3.40;;;;;;;;;;4868942;28;20073;-71
2023/06/04 00:11:33;;;;;;;6.65;3.55;;;;;;;;;;4866195;28;20490;-71
2023/06/04 00:14:00;;;;;;;5.32;3.20;;;;;;;;;;4874972;29;20076;-72
2023/06/04 00:16:25;;;;;;;5.95;3.47;;;;;;;;;;4872337;28;20092;-71
2023/06/04 00:18:52;;;;;;;6.00;3.60;;;;;;;;;;4873394;28;20036;-71
2023/06/04 00:21:20;;;;;;;6.03;3.45;;;;;;;;;;4869633;28;20049;-71
2023/06/04 00:23:46;;;;;;;7.32;3.70;;;;;;;;;;4869012;28;20147;-72
2023/06/04 00:26:13;;;;;;;6.13;3.40;;;;;;;;;;4869064;29;20059;-72
2023/06/04 00:28:38;;;;;;;7.65;3.65;;;;;;;;;;4881073;28;20526;-72
2023/06/04 00:31:05;;;;;;;8.43;3.58;;;;;;;;;;4865226;28;20061;-72
2023/06/04 00:33:30;;;;;;;6.97;3.35;;;;;;;;;;4869025;28;20045;-76
2023/06/04 00:35:56;;;;;;;6.82;4.07;;;;;;;;;;4863479;28;20049;-75
2023/06/04 00:38:21;;;;;;;7.80;3.75;;;;;;;;;;4864368;28;20600;-77
2023/06/04 00:40:46;;;;;;;8.20;3.85;;;;;;;;;;4863132;28;20155;-77
2023/06/04 00:43:13;;;;;;;8.05;4.00;;;;;;;;;;4865241;28;20044;-75
2023/06/04 00:45:39;;;;;;;8.60;3.83;;;;;;;;;;4865014;28;20051;-74
2023/06/04 00:48:05;;;;;;;10.90;4.32;;;;;;;;;;4879931;28;20041;-76
2023/06/04 00:50:33;;;;;;;6.07;3.90;;;;;;;;;;4865300;28;20040;-75
2023/06/04 00:52:58;;;;;;;8.00;4.00;;;;;;;;;;4863454;28;20513;-76
2023/06/04 00:55:24;;;;;;;7.13;3.92;;;;;;;;;;4863448;28;20041;-76
2023/06/04 00:57:49;;;;;;;8.25;4.47;;;;;;;;;;4862722;28;20076;-76
2023/06/04 01:00:15;;;;;;;7.60;3.83;;;;;;;;;;4859675;28;20052;-75
2023/06/04 01:02:41;;;;;;;7.32;4.10;;;;;;;;;;4864972;28;20047;-76
2023/06/04 01:05:12;;;;;;;8.68;4.43;;;;;;;;;;4863061;28;20041;-76
2023/06/04 01:07:40;;;;;;;7.45;4.07;;;;;;;;;;4879809;28;20137;-76
2023/06/04 01:10:06;;;;;;;7.93;4.10;;;;;;;;;;4862005;28;20036;-75
2023/06/04 01:12:33;;;;;;;10.63;4.50;;;;;;;;;;4864105;28;20043;-75
2023/06/04 01:14:58;;;;;;;8.98;4.20;;;;;;;;;;4865427;28;20040;-75
2023/06/04 01:17:37;;;;;;;8.65;4.60;;;;;;;;;;4864440;28;20040;-75
2023/06/04 01:20:11;;;;;;;7.18;4.53;;;;;;;;;;4875337;28;20057;-76
2023/06/04 01:22:51;;;;;;;10.95;4.65;;;;;;;;;;4869281;28;20043;-75
2023/06/04 01:25:20;;;;;;;11.55;4.57;;;;;;;;;;4849186;28;20039;-77
2023/06/04 01:27:52;;;;;;;9.05;4.88;;;;;;;;;;4923067;28;20111;-76
2023/06/04 01:30:22;;;;;;;14.32;5.45;;;;;;;;;;4860192;28;20037;-76
2023/06/04 01:32:48;;;;;;;9.55;4.88;;;;;;;;;;4860941;28;22274;-76
2023/06/04 01:35:13;;;;;;;10.73;5.18;;;;;;;;;;4861902;28;20035;-77
2023/06/04 01:37:41;;;;;;;10.13;5.07;;;;;;;;;;4848767;28;20037;-76
2023/06/04 01:40:08;;;;;;;10.00;5.28;;;;;;;;;;4842251;28;20260;-76
2023/06/04 01:42:33;;;;;;;12.55;5.47;;;;;;;;;;4842537;28;20080;-76
2023/06/04 01:44:58;;;;;;;10.80;5.72;;;;;;;;;;4846455;28;20541;-76
2023/06/04 01:47:23;;;;;;;12.25;5.78;;;;;;;;;;4927073;28;20038;-76
2023/06/04 01:49:49;;;;;;;9.13;5.60;;;;;;;;;;4856229;28;20064;-76
2023/06/04 01:52:16;;;;;;;17.63;6.07;;;;;;;;;;4845736;28;20116;-76
2023/06/04 01:54:42;;;;;;;10.25;5.45;;;;;;;;;;4901816;28;20038;-76
2023/06/04 01:57:09;;;;;;;11.40;5.82;;;;;;;;;;4845324;28;20176;-76
2023/06/04 01:59:36;;;;;;;20.00;6.15;;;;;;;;;;4859239;28;20041;-75
2023/06/04 02:02:01;;;;;;;8.60;5.60;;;;;;;;;;4842805;28;20102;-76
2023/06/04 02:04:27;;;;;;;10.98;6.13;;;;;;;;;;4849102;28;20037;-76
2023/06/04 02:06:53;;;;;;;10.43;6.03;;;;;;;;;;4924029;28;20040;-76
2023/06/04 02:09:18;;;;;;;13.73;5.70;;;;;;;;;;4844875;28;20030;-75
2023/06/04 02:11:43;;;;;;;8.88;5.30;;;;;;;;;;4859298;28;20093;-76
2023/06/04 02:14:08;;;;;;;12.43;5.80;;;;;;;;;;4861902;28;20037;-74
2023/06/04 02:16:34;;;;;;;11.00;5.80;;;;;;;;;;4925132;28;20656;-76
2023/06/04 02:19:03;;;;;;;10.52;5.80;;;;;;;;;;4858505;29;22579;-76
2023/06/04 02:21:28;;;;;;;10.13;5.72;;;;;;;;;;4859373;28;20112;-76
2023/06/04 02:23:53;;;;;;;10.65;5.90;;;;;;;;;;4857381;28;20045;-76
2023/06/04 02:26:18;;;;;;;11.10;6.38;;;;;;;;;;4844841;28;20156;-76
2023/06/04 02:28:44;;;;;;;10.13;6.03;;;;;;;;;;4852436;28;20133;-76
2023/06/04 02:31:09;;;;;;;11.07;6.07;;;;;;;;;;4849186;28;20558;-75
2023/06/04 02:33:35;;;;;;;12.70;6.57;;;;;;;;;;4857689;28;20056;-76
2023/06/04 02:36:00;;;;;;;13.77;6.53;;;;;;;;;;4842794;28;20169;-75
2023/06/04 02:38:26;;;;;;;13.60;6.30;;;;;;;;;;4845979;28;20048;-76
2023/06/04 02:40:51;;;;;;;13.88;6.85;;;;;;;;;;4858444;28;21910;-75
2023/06/04 02:43:19;;;;;;;11.32;7.22;;;;;;;;;;4860238;28;20171;-76
2023/06/04 02:45:44;;;;;;;11.40;6.88;;;;;;;;;;4843768;28;20049;-76
2023/06/04 02:48:10;;;;;;;13.38;6.97;;;;;;;;;;4842582;28;20612;-75
2023/06/04 02:50:35;;;;;;;14.65;6.30;;;;;;;;;;4860191;28;20053;-76
2023/06/04 02:53:00;;;;;;;12.05;6.60;;;;;;;;;;4848064;28;20737;-76
2023/06/04 02:55:26;;;;;;;12.85;6.70;;;;;;;;;;4849818;28;20066;-76
2023/06/04 02:57:51;;;;;;;15.93;7.90;;;;;;;;;;4922749;28;20882;-76
2023/06/04 03:00:17;;;;;;;14.50;6.97;;;;;;;;;;4839374;28;20049;-76
2023/06/04 03:02:48;;;;;;;13.35;7.07;;;;;;;;;;4892922;28;20490;-76
2023/06/04 03:05:14;;;;;;;14.10;6.60;;;;;;;;;;4861980;28;20049;-76
2023/06/04 03:07:41;;;;;;;14.85;7.07;;;;;;;;;;4898540;28;20040;-76
2023/06/04 03:10:09;;;;;;;13.50;7.43;;;;;;;;;;4916489;28;20036;-76
2023/06/04 03:12:35;;;;;;;17.23;7.70;;;;;;;;;;4862553;28;20080;-76
2023/06/04 03:15:00;;;;;;;14.25;7.50;;;;;;;;;;4840294;28;20137;-76
2023/06/04 03:17:26;;;;;;;16.40;7.60;;;;;;;;;;4845443;28;20656;-76
2023/06/04 03:19:51;;;;;;;17.67;7.32;;;;;;;;;;4843548;29;20053;-75
2023/06/04 03:22:16;;;;;;;13.32;7.70;;;;;;;;;;4867350;28;20056;-76
2023/06/04 03:24:42;;;;;;;13.60;7.20;;;;;;;;;;4872016;28;20041;-76
2023/06/04 03:27:08;;;;;;;16.23;7.32;;;;;;;;;;4844856;28;20563;-75
2023/06/04 03:29:33;;;;;;;14.77;7.50;;;;;;;;;;4905253;28;20029;-76
2023/06/04 03:32:01;;;;;;;16.75;8.18;;;;;;;;;;4844368;29;20044;-75
2023/06/04 03:34:27;;;;;;;15.43;7.88;;;;;;;;;;4866670;28;20816;-75
2023/06/04 03:36:53;;;;;;;16.67;8.27;;;;;;;;;;4841060;28;20049;-75
2023/06/04 03:39:18;;;;;;;15.82;8.15;;;;;;;;;;4864567;28;20041;-76
2023/06/04 03:41:44;;;;;;;19.67;7.97;;;;;;;;;;4861506;28;20056;-75
2023/06/04 03:44:09;;;;;;;15.20;8.25;;;;;;;;;;4842201;29;20041;-74
2023/06/04 03:46:35;;;;;;;14.00;7.13;;;;;;;;;;4874113;28;20106;-75
2023/06/04 03:49:00;;;;;;;14.50;7.47;;;;;;;;;;4934893;28;21059;-75
2023/06/04 03:51:28;;;;;;;16.48;7.75;;;;;;;;;;4862560;28;20132;-75
2023/06/04 03:53:53;;;;;;;16.52;7.70;;;;;;;;;;4859342;28;20128;-75
2023/06/04 03:56:18;;;;;;;15.45;8.23;;;;;;;;;;4876654;28;20037;-74
2023/06/04 03:58:46;;;;;;;17.50;7.90;;;;;;;;;;4848348;28;20056;-75
2023/06/04 04:01:11;;;;;;;19.00;8.45;;;;;;;;;;4915929;28;20072;-76
2023/06/04 04:03:37;;;;;;;17.42;8.15;;;;;;;;;;4862870;28;20128;-76
2023/06/04 04:06:04;;;;;;;15.25;7.43;;;;;;;;;;4846732;28;20041;-76
2023/06/04 04:08:31;;;;;;;16.17;7.60;;;;;;;;;;4924631;28;20160;-76
2023/06/04 04:10:56;;;;;;;17.98;8.15;;;;;;;;;;4848208;28;20077;-77
2023/06/04 04:13:24;;;;;;;18.70;8.00;;;;;;;;;;4846354;28;20142;-74
2023/06/04 04:15:52;;;;;;;21.45;8.65;;;;;;;;;;4841477;28;20368;-74
2023/06/04 04:18:19;;;;;;;17.42;8.45;;;;;;;;;;4877268;28;20103;-74
2023/06/04 04:20:45;;;;;;;14.60;7.60;;;;;;;;;;4846295;28;20053;-75
2023/06/04 04:23:14;;;;;;;12.32;7.20;;;;;;;;;;4919598;28;20188;-75
2023/06/04 04:25:39;;;;;;;16.63;7.80;;;;;;;;;;4872984;28;22307;-74
2023/06/04 04:28:07;;;;;;;12.88;6.90;;;;;;;;;;4843041;29;20049;-75
2023/06/04 04:30:38;;;;;;;17.00;7.32;;;;;;;;;;4846863;28;20200;-75
2023/06/04 04:33:07;;;;;;;14.77;6.87;;;;;;;;;;4828164;28;20041;-75
2023/06/04 04:35:34;;;;;;;17.35;6.72;;;;;;;;;;4867407;28;20172;-75
2023/06/04 04:38:03;;;;;;;15.18;6.60;;;;;;;;;;4919721;28;20515;-76
2023/06/04 04:40:31;;;;;;;14.82;6.93;;;;;;;;;;4918006;28;20520;-75
2023/06/04 04:42:56;;;;;;;14.15;6.75;;;;;;;;;;4930382;28;20047;-76
2023/06/04 04:45:22;;;;;;;15.73;7.35;;;;;;;;;;4860653;28;20645;-75
2023/06/04 04:47:47;;;;;;;16.30;6.43;;;;;;;;;;4844217;28;20045;-75
2023/06/04 04:50:12;;;;;;;14.38;6.45;;;;;;;;;;4860172;28;20047;-75
2023/06/04 04:52:38;;;;;;;14.38;5.78;;;;;;;;;;4849012;28;20129;-73
2023/06/04 04:55:03;;;;;;;13.30;6.40;;;;;;;;;;4859544;28;20566;-75
2023/06/04 04:57:29;;;;;;;12.75;6.57;;;;;;;;;;4841589;29;20053;-75
2023/06/04 04:59:54;;;;;;;11.90;5.88;;;;;;;;;;4860432;28;20056;-74
2023/06/04 05:02:22;;;;;;;15.23;6.57;;;;;;;;;;4862161;28;20033;-75
2023/06/04 05:04:47;;;;;;;14.73;6.22;;;;;;;;;;4847872;28;20071;-75
2023/06/04 05:07:12;;;;;;;15.00;5.63;;;;;;;;;;4861477;28;20037;-75
2023/06/04 05:09:37;;;;;;;15.18;5.50;;;;;;;;;;4850328;28;20059;-74
2023/06/04 05:12:03;;;;;;;11.43;5.10;;;;;;;;;;4845793;28;20087;-74
2023/06/04 05:14:29;;;;;;;10.75;4.97;;;;;;;;;;4848635;28;20034;-75
2023/06/04 05:16:56;;;;;;;10.50;5.03;;;;;;;;;;4845790;28;20529;-69
2023/06/04 05:19:22;;;;;;;12.93;4.82;;;;;;;;;;4890073;28;20311;-68
2023/06/04 05:21:50;;;;;;;12.80;4.22;;;;;;;;;;4913516;28;20138;-69
2023/06/04 05:24:16;;;;;;;9.23;3.85;;;;;;;;;;4917482;28;20081;-69
2023/06/04 05:26:41;;;;;;;11.65;4.20;;;;;;;;;;4917038;28;20397;-68
2023/06/04 05:29:07;;;;;;;10.10;3.97;;;;;;;;;;4926829;28;20108;-69
2023/06/04 05:31:33;;;;;;;9.38;3.70;;;;;;;;;;4916310;28;20040;-68
2023/06/04 05:34:01;;;;;;;11.32;3.70;;;;;;;;;;4912476;28;20093;-68
2023/06/04 05:36:26;;;;;;;11.45;4.10;;;;;;;;;;4913013;28;20047;-69
2023/06/04 05:38:56;;;;;;;9.65;3.50;;;;;;;;;;4915503;28;20579;-69
2023/06/04 05:41:23;;;;;;;12.60;3.92;;;;;;;;;;4910391;28;20115;-67
2023/06/04 05:43:49;;;;;;;10.38;4.00;;;;;;;;;;4928118;28;20114;-67
2023/06/04 05:46:14;;;;;;;10.15;3.80;;;;;;;;;;4915998;28;20377;-68
2023/06/04 05:48:39;;;;;;;11.00;3.67;;;;;;;;;;4909711;28;20040;-69
2023/06/04 05:51:05;;;;;;;13.93;4.10;;;;;;;;;;4912639;28;20118;-70
2023/06/04 05:53:30;;;;;;;10.75;3.80;;;;;;;;;;4914825;28;22300;-68
2023/06/04 05:55:56;;;;;;;9.07;3.50;;;;;;;;;;4912997;28;20038;-68
2023/06/04 05:58:21;;;;;;;11.90;3.83;;;;;;;;;;4934764;28;20094;-67
2023/06/04 06:00:48;;;;;;;9.93;3.70;;;;;;;;;;4915144;28;20099;-67
2023/06/04 06:03:16;;;;;;;9.52;3.40;;;;;;;;;;4914652;28;20053;-69
2023/06/04 06:05:44;;;;;;;10.35;3.10;;;;;;;;;;4913655;28;20543;-68
2023/06/04 06:08:09;;;;;;;9.90;3.40;;;;;;;;;;4912308;28;20039;-68
2023/06/04 06:10:35;;;;;;;10.32;2.88;;;;;;;;;;4924366;28;20049;-67
2023/06/04 06:13:00;;;;;;;8.75;3.10;;;;;;;;;;4918147;28;20148;-68
2023/06/04 06:15:26;;;;;;;6.43;2.72;;;;;;;;;;4915733;28;20098;-68
2023/06/04 06:17:51;;;;;;;7.57;3.00;;;;;;;;;;4916887;28;20405;-69
2023/06/04 06:20:17;;;;;;;9.38;2.97;;;;;;;;;;4853242;28;20064;-69
2023/06/04 06:22:45;;;;;;;10.00;2.92;;;;;;;;;;4843027;28;20168;-69
2023/06/04 06:25:12;;;;;;;12.02;3.45;;;;;;;;;;4843749;28;20045;-69
2023/06/04 06:27:38;;;;;;;6.25;2.53;;;;;;;;;;4842768;28;20598;-69
2023/06/04 06:30:04;;;;;;;8.27;2.60;;;;;;;;;;4857452;28;20052;-69
2023/06/04 06:32:31;;;;;;;7.05;2.88;;;;;;;;;;4858138;28;20033;-69
2023/06/04 06:34:59;;;;;;;7.18;2.80;;;;;;;;;;4858622;28;20041;-68
2023/06/04 06:37:24;;;;;;;7.78;2.78;;;;;;;;;;4847215;28;20037;-69
2023/06/04 06:39:52;;;;;;;9.23;2.90;;;;;;;;;;4843748;28;20057;-68
2023/06/04 06:42:18;;;;;;;8.30;2.90;;;;;;;;;;4860522;28;20048;-68
2023/06/04 06:44:44;;;;;;;8.90;2.40;;;;;;;;;;4843725;28;20046;-67
2023/06/04 06:47:13;;;;;;;6.63;2.40;;;;;;;;;;4845099;29;20037;-69
2023/06/04 06:49:40;;;;;;;8.38;2.80;;;;;;;;;;4845879;28;20045;-67
2023/06/04 06:52:06;;;;;;;8.65;3.00;;;;;;;;;;4844243;28;20042;-68
2023/06/04 06:54:31;;;;;;;10.15;2.83;;;;;;;;;;4843888;29;20068;-68
2023/06/04 06:56:59;;;;;;;7.78;2.38;;;;;;;;;;4846473;29;20092;-69
2023/06/04 06:59:25;;;;;;;8.32;2.67;;;;;;;;;;4846288;28;20632;-71
2023/06/04 07:01:50;;;;;;;8.75;2.63;;;;;;;;;;4844376;28;20055;-71
2023/06/04 07:04:16;;;;;;;8.27;2.38;;;;;;;;;;4844258;28;20045;-70
2023/06/04 07:06:42;;;;;;;7.65;2.58;;;;;;;;;;4858542;28;20099;-70
2023/06/04 07:09:09;;;;;;;9.63;2.92;;;;;;;;;;4845325;28;20049;-70
2023/06/04 07:11:37;;;;;;;7.22;2.60;;;;;;;;;;4843287;28;20044;-71
2023/06/04 07:14:02;;;;;;;6.78;2.90;;;;;;;;;;4844045;28;20124;-72
2023/06/04 07:16:28;;;;;;;6.97;2.28;;;;;;;;;;4842858;28;20038;-70
2023/06/04 07:18:53;;;;;;;5.57;2.20;;;;;;;;;;4843664;28;20100;-71
2023/06/04 07:21:23;;;;;;;7.85;2.40;;;;;;;;;;4859926;28;20071;-71
2023/06/04 07:23:52;;;;;;;6.22;2.20;;;;;;;;;;4922783;28;20068;-71
2023/06/04 07:26:17;;;;;;;10.00;2.40;;;;;;;;;;4844132;28;20076;-74
2023/06/04 07:28:43;;;;;;;8.02;2.40;;;;;;;;;;4848221;28;20045;-75
2023/06/04 07:31:08;;;;;;;8.50;2.60;;;;;;;;;;4847952;28;20123;-71
2023/06/04 07:33:43;;;;;;;6.75;2.38;;;;;;;;;;4862978;28;20052;-71
2023/06/04 07:36:14;;;;;;;5.80;2.20;;;;;;;;;;4847587;28;20132;-64
2023/06/04 07:38:42;;;;;;;7.60;1.90;;;;;;;;;;4864290;28;20053;-74
2023/06/04 07:41:07;;;;;;;7.35;2.60;;;;;;;;;;4846397;28;20051;-73
2023/06/04 07:43:36;;;;;;;5.57;2.03;;;;;;;;;;4862296;28;20037;-72
2023/06/04 07:46:04;;;;;;;7.20;2.10;;;;;;;;;;4846568;28;20083;-73
2023/06/04 07:48:32;;;;;;;9.50;2.33;;;;;;;;;;4847481;28;20486;-74
2023/06/04 07:50:58;;;;;;;7.07;2.10;;;;;;;;;;4848923;28;20037;-72
2023/06/04 07:53:23;;;;;;;5.50;2.30;;;;;;;;;;4847524;28;20045;-74
2023/06/04 07:55:48;;;;;;;6.72;2.10;;;;;;;;;;4860877;28;20045;-74
2023/06/04 07:58:14;;;;;;;7.45;2.25;;;;;;;;;;4845933;28;20518;-74
2023/06/04 08:00:40;;;;;;;6.07;1.95;;;;;;;;;;4847041;28;20095;-75
2023/06/04 08:03:05;;;;;;;6.43;2.20;;;;;;;;;;4848090;28;20045;-74
2023/06/04 08:05:31;;;;;;;7.22;2.28;;;;;;;;;;4860082;28;20747;-73
2023/06/04 08:07:56;;;;;;;5.18;1.73;;;;;;;;;;4844917;28;20643;-75
2023/06/04 08:10:21;;;;;;;6.35;2.05;;;;;;;;;;4847780;28;20056;-76
2023/06/04 08:12:49;;;;;;;7.25;2.60;;;;;;;;;;4846678;29;20160;-75
2023/06/04 08:15:14;;;;;;;6.13;1.88;;;;;;;;;;4862584;28;21298;-76
2023/06/04 08:17:40;;;;;;;4.90;1.75;;;;;;;;;;4861945;28;20108;-76
2023/06/04 08:20:11;;;;;;;5.45;2.03;;;;;;;;;;4846677;28;20061;-77
2023/06/04 08:22:37;;;;;;;5.13;1.80;;;;;;;;;;4849560;28;20052;-78
2023/06/04 08:25:04;;;;;;;5.18;1.90;;;;;;;;;;4861368;28;20033;-78
2023/06/04 08:27:29;;;;;;;4.75;1.73;;;;;;;;;;4848265;28;20896;-77
2023/06/04 08:29:55;;;;;;;6.15;1.80;;;;;;;;;;4860593;28;20048;-74
2023/06/04 08:32:22;;;;;;;4.40;1.58;;;;;;;;;;4859571;28;20104;-78
2023/06/04 08:34:50;;;;;;;5.53;1.73;;;;;;;;;;4845060;28;20041;-74
2023/06/04 08:37:16;;;;;;;5.97;1.90;;;;;;;;;;4844339;28;20051;-71
2023/06/04 08:39:41;;;;;;;4.43;1.60;;;;;;;;;;4846074;28;21552;-71
2023/06/04 08:42:09;;;;;;;7.22;1.95;;;;;;;;;;4844358;28;20071;-76
2023/06/04 08:44:35;;;;;;;4.65;1.80;;;;;;;;;;4844784;28;20103;-72
2023/06/04 08:47:04;;;;;;;5.55;1.73;;;;;;;;;;4920718;28;20053;-74
2023/06/04 08:49:34;;;;;;;4.55;1.80;;;;;;;;;;4843261;28;20048;-72
2023/06/04 08:51:59;;;;;;;4.40;1.70;;;;;;;;;;4845060;28;21121;-73
2023/06/04 08:54:26;;;;;;;3.25;1.48;;;;;;;;;;4845775;28;20048;-71
2023/06/04 08:56:51;;;;;;;5.00;1.45;;;;;;;;;;4845625;28;20033;-72
2023/06/04 08:59:17;;;;;;;5.53;1.70;;;;;;;;;;4845099;28;20043;-72
2023/06/04 09:01:46;;;;;;;5.32;1.92;;;;;;;;;;4862251;28;21074;-69
2023/06/04 09:04:12;;;;;;;6.28;2.00;;;;;;;;;;4848287;28;20049;-68
2023/06/04 09:06:37;;;;;;;4.40;1.60;;;;;;;;;;4845567;28;20045;-67
2023/06/04 09:09:05;;;;;;;5.53;1.60;;;;;;;;;;4846021;28;20052;-68
2023/06/04 09:11:37;;;;;;;4.13;1.40;;;;;;;;;;4845180;28;20037;-69
2023/06/04 09:14:04;;;;;;;4.10;1.70;;;;;;;;;;4845093;28;20044;-69
2023/06/04 09:16:36;;;;;;;5.60;1.55;;;;;;;;;;4844948;28;20073;-69
2023/06/04 09:19:02;;;;;;;7.18;1.80;;;;;;;;;;4844971;28;20136;-70
2023/06/04 09:21:29;;;;;;;6.75;2.10;;;;;;;;;;4846246;28;20059;-71
2023/06/04 09:23:55;;;;;;;4.25;1.80;;;;;;;;;;4843869;28;20053;-70
2023/06/04 09:26:21;;;;;;;5.60;1.65;;;;;;;;;;4910993;28;20040;-69
2023/06/04 09:28:49;;;;;;;4.25;1.60;;;;;;;;;;4843673;28;20416;-69
2023/06/04 09:31:18;;;;;;;4.25;1.70;;;;;;;;;;4843075;28;20064;-68
2023/06/04 09:33:48;;;;;;;3.72;1.50;;;;;;;;;;4844412;28;20049;-68
2023/06/04 09:36:15;;;;;;;4.35;2.15;;;;;;;;;;4885984;28;20124;-69
2023/06/04 09:38:41;;;;;;;4.63;1.80;;;;;;;;;;4865064;28;20044;-67
2023/06/04 09:41:13;;;;;;;4.93;1.95;;;;;;;;;;4862892;28;20078;-69
2023/06/04 09:43:38;;;;;;;5.25;1.70;;;;;;;;;;4864966;28;20060;-68
2023/06/04 09:46:10;;;;;;;9.90;1.90;;;;;;;;;;4863932;28;20052;-68
2023/06/04 09:48:35;;;;;;;5.65;1.60;;;;;;;;;;4878586;28;20043;-70
2023/06/04 09:51:08;;;;;;;5.13;1.30;;;;;;;;;;4863776;28;20045;-67
2023/06/04 09:53:33;;;;;;;6.18;1.70;;;;;;;;;;4877638;28;20757;-68
2023/06/04 09:55:59;;;;;;;6.43;1.60;;;;;;;;;;4859917;28;20064;-67
2023/06/04 09:58:28;;;;;;;5.03;1.90;;;;;;;;;;4877446;28;20036;-68
2023/06/04 10:00:58;;;;;;;5.00;1.70;;;;;;;;;;4863334;28;20049;-69
2023/06/04 10:03:30;;;;;;;5.97;1.88;;;;;;;;;;4878794;28;21996;-68
2023/06/04 10:05:59;;;;;;;5.20;1.70;;;;;;;;;;4863532;28;20074;-70
2023/06/04 10:08:26;;;;;;;5.47;1.80;;;;;;;;;;4862980;28;20526;-68
2023/06/04 10:10:53;;;;;;;4.82;1.30;;;;;;;;;;4862672;28;20760;-69
2023/06/04 10:13:19;;;;;;;3.38;1.33;;;;;;;;;;4863796;28;20040;-70
2023/06/04 10:15:48;;;;;;;5.07;1.55;;;;;;;;;;4880008;28;21104;-68
2023/06/04 10:18:16;;;;;;;3.05;1.50;;;;;;;;;;4862050;28;20040;-67
2023/06/04 10:20:41;;;;;;;6.55;1.50;;;;;;;;;;4861203;28;20052;-71
2023/06/04 10:23:12;;;;;;;4.60;1.25;;;;;;;;;;4863569;28;20090;-68
2023/06/04 10:25:37;;;;;;;2.85;1.15;;;;;;;;;;4862073;28;20156;-69
2023/06/04 10:28:06;;;;;;;3.38;1.40;;;;;;;;;;4875777;28;20041;-68
2023/06/04 10:30:34;;;;;;;4.90;1.90;;;;;;;;;;4861137;28;20036;-70
2023/06/04 10:32:59;;;;;;;2.97;1.15;;;;;;;;;;4874650;28;20052;-68
2023/06/04 10:35:35;;;;;;;2.92;1.33;;;;;;;;;;4862830;28;20083;-67
2023/06/04 10:38:13;;;;;;;3.75;1.50;;;;;;;;;;4860177;28;20045;-69
2023/06/04 10:40:39;;;;;;;5.10;1.30;;;;;;;;;;4876529;28;20128;-71
2023/06/04 10:43:08;;;;;;;6.00;1.63;;;;;;;;;;4862865;28;20063;-70
2023/06/04 10:45:34;;;;;;;2.88;1.30;;;;;;;;;;4863617;28;20044;-69
2023/06/04 10:48:00;;;;;;;4.55;1.50;;;;;;;;;;4859844;28;21967;-66
2023/06/04 10:50:25;;;;;;;4.72;1.70;;;;;;;;;;4861489;28;20033;-70
2023/06/04 10:52:51;;;;;;;4.18;1.45;;;;;;;;;;4864017;28;20094;-69
2023/06/04 10:55:17;;;;;;;4.05;1.38;;;;;;;;;;4871904;28;20044;-70
2023/06/04 10:57:55;;;;;;;5.65;1.27;;;;;;;;;;4879546;28;20048;-69
2023/06/04 11:00:21;;;;;;;8.20;1.95;;;;;;;;;;4864503;28;20702;-71
2023/06/04 11:03:06;;;;;;;7.82;1.83;;;;;;;;;;4860485;28;20044;-70
2023/06/04 11:05:35;;;;;;;4.32;1.60;;;;;;;;;;4862015;28;20578;-69
2023/06/04 11:08:02;;;;;;;6.15;1.80;;;;;;;;;;4839723;28;20457;-70
2023/06/04 11:10:38;;;;;;;7.82;2.00;;;;;;;;;;4858375;28;20051;-65
2023/06/04 11:13:03;;;;;;;9.15;2.08;;;;;;;;;;4857246;28;20079;-70
2023/06/04 11:15:39;;;;;;;10.23;1.98;;;;;;;;;;4873726;28;20184;-72
2023/06/04 11:18:07;;;;;;;9.25;2.30;;;;;;;;;;4856166;28;21907;-72
2023/06/04 11:20:32;;;;;;;9.07;2.47;;;;;;;;;;4857136;28;20177;-67
2023/06/04 11:22:59;;;;;;;10.25;2.60;;;;;;;;;;4857555;28;20111;-68
2023/06/04 11:25:25;;;;;;;3.10;1.30;;;;;;;;;;4855367;28;20048;-69
2023/06/04 11:27:52;;;;;;;8.63;1.92;;;;;;;;;;4858177;28;20037;-68
2023/06/04 11:30:17;;;;;;;10.25;2.10;;;;;;;;;;4856348;28;20036;-67
2023/06/04 11:32:42;;;;;;;18.27;2.80;;;;;;;;;;4877970;28;20557;-70
2023/06/04 11:35:16;;;;;;;17.67;2.78;;;;;;;;;;4854623;28;20047;-68
2023/06/04 11:37:41;;;;;;;12.57;2.08;;;;;;;;;;4871903;28;20041;-69
2023/06/04 11:40:17;;;;;;;12.93;2.28;;;;;;;;;;4855397;28;20095;-73
2023/06/04 11:42:46;;;;;;;14.13;2.58;;;;;;;;;;4855510;28;20389;-70
2023/06/04 11:45:14;;;;;;;10.38;2.00;;;;;;;;;;4860313;28;20029;-69
2023/06/04 11:47:41;;;;;;;9.00;2.05;;;;;;;;;;4874540;28;20043;-70
2023/06/04 11:50:07;;;;;;;9.07;2.22;;;;;;;;;;4857592;28;20873;-69
2023/06/04 11:52:33;;;;;;;17.73;2.90;;;;;;;;;;4877983;28;20040;-70
2023/06/04 11:54:58;;;;;;;14.80;2.40;;;;;;;;;;4859867;28;21946;-69
2023/06/04 11:57:23;;;;;;;18.52;3.15;;;;;;;;;;4861056;28;20051;-67
2023/06/04 11:59:53;;;;;;;14.38;2.38;;;;;;;;;;4860969;29;20037;-68
2023/06/04 12:02:19;;;;;;;15.95;2.53;;;;;;;;;;4861885;28;20126;-69
2023/06/04 12:04:47;;;;;;;13.68;2.45;;;;;;;;;;4858708;28;20036;-70
2023/06/04 12:07:19;;;;;;;14.02;2.55;;;;;;;;;;4859262;28;20036;-68
2023/06/04 12:09:45;;;;;;;21.50;2.78;;;;;;;;;;4860980;28;20037;-68
2023/06/04 12:12:12;;;;;;;19.02;3.00;;;;;;;;;;4863194;28;20505;-69
2023/06/04 12:14:38;;;;;;;25.23;3.42;;;;;;;;;;4863281;28;20044;-69
2023/06/04 12:17:09;;;;;;;15.88;3.10;;;;;;;;;;4861623;28;20032;-67
2023/06/04 12:19:51;;;;;;;21.25;2.80;;;;;;;;;;4860382;28;20032;-67
2023/06/04 12:22:16;;;;;;;15.70;2.70;;;;;;;;;;4878284;28;20557;-66
2023/06/04 12:24:49;;;;;;;18.42;2.92;;;;;;;;;;4864152;28;20033;-67
2023/06/04 12:27:16;;;;;;;18.63;2.95;;;;;;;;;;4877091;29;20100;-71
2023/06/04 12:29:58;;;;;;;19.85;2.67;;;;;;;;;;4860015;28;20036;-74
2023/06/04 12:32:23;;;;;;;19.92;3.65;;;;;;;;;;4862089;28;20626;-72
2023/06/04 12:34:51;;;;;;;17.77;2.70;;;;;;;;;;4866324;28;20040;-75
2023/06/04 12:37:16;;;;;;;16.67;3.05;;;;;;;;;;4869150;28;20470;-73
2023/06/04 12:39:42;;;;;;;19.05;2.75;;;;;;;;;;4867910;28;20040;-73
2023/06/04 12:42:08;;;;;;;25.65;3.65;;;;;;;;;;4865175;28;22302;-72
2023/06/04 12:44:37;;;;;;;21.85;3.03;;;;;;;;;;4865955;28;20059;-73
2023/06/04 12:47:06;;;;;;;19.55;3.50;;;;;;;;;;4866867;28;20024;-73
2023/06/04 12:49:36;;;;;;;21.27;3.03;;;;;;;;;;4865696;28;20045;-74
2023/06/04 12:52:02;;;;;;;14.77;2.67;;;;;;;;;;4881737;28;20137;-74
2023/06/04 12:54:30;;;;;;;12.68;2.65;;;;;;;;;;4867820;28;20722;-72
2023/06/04 12:56:57;;;;;;;30.75;3.63;;;;;;;;;;4865872;28;20068;-73
2023/06/04 12:59:29;;;;;;;19.45;3.13;;;;;;;;;;4866278;28;20040;-74
2023/06/04 13:01:54;;;;;;;;;;;;;;;;;;4869799;28;20045;-75
2023/06/04 13:04:23;;;;;;;14.82;3.03;;;;;;;;;;4868394;28;19922;-72
2023/06/04 13:06:49;;;;;;;23.50;3.63;;;;;;;;;;4868377;28;20119;-73
2023/06/04 13:09:19;;;;;;;10.88;2.80;;;;;;;;;;4865876;28;20626;-75
2023/06/04 13:11:44;;;;;;;16.83;3.35;;;;;;;;;;4866526;28;20045;-72
2023/06/04 13:14:10;;;;;;;16.42;2.60;;;;;;;;;;4866851;28;20044;-74
2023/06/04 13:16:38;;;;;;;18.90;3.15;;;;;;;;;;4865214;28;20055;-73
2023/06/04 13:19:05;;;;;;;13.82;3.00;;;;;;;;;;4865633;28;20049;-74
2023/06/04 13:21:31;;;;;;;24.75;3.47;;;;;;;;;;4865899;28;20063;-72
2023/06/04 13:23:58;;;;;;;21.15;3.40;;;;;;;;;;4880241;28;20520;-73
2023/06/04 13:26:23;;;;;;;23.52;3.42;;;;;;;;;;4865945;28;20037;-73
2023/06/04 13:28:49;;;;;;;16.00;3.17;;;;;;;;;;4851632;28;20091;-74
2023/06/04 13:31:16;;;;;;;18.80;3.40;;;;;;;;;;4870916;29;20124;-77
2023/06/04 13:33:42;;;;;;;24.27;3.20;;;;;;;;;;4869335;28;20045;-73
2023/06/04 13:36:07;;;;;;;22.40;3.50;;;;;;;;;;4867962;28;20099;-74
2023/06/04 13:38:32;;;;;;;25.70;3.85;;;;;;;;;;4870431;29;20037;-72
2023/06/04 13:40:58;;;;;;;22.50;3.92;;;;;;;;;;4868211;28;20070;-73
2023/06/04 13:43:25;;;;;;;24.67;3.70;;;;;;;;;;4866994;28;20712;-73
2023/06/04 13:45:51;;;;;;;19.67;3.60;;;;;;;;;;4865759;28;20115;-77
2023/06/04 13:48:16;;;;;;;21.67;3.70;;;;;;;;;;4869386;28;20053;-74
2023/06/04 13:50:41;;;;;;;18.13;3.17;;;;;;;;;;4868639;28;20041;-75
2023/06/04 13:53:09;;;;;;;21.63;3.58;;;;;;;;;;4866710;28;20044;-75
2023/06/04 13:55:37;;;;;;;21.63;3.53;;;;;;;;;;4882727;28;20052;-74
2023/06/04 13:58:03;;;;;;;25.27;3.53;;;;;;;;;;4868514;28;20033;-73
2023/06/04 14:00:30;;;;;;;16.58;3.20;;;;;;;;;;4862968;28;20053;-71
2023/06/04 14:02:56;;;;;;;15.02;3.22;;;;;;;;;;4863443;28;20037;-75
2023/06/04 14:05:21;;;;;;;18.13;3.10;;;;;;;;;;4864012;28;20043;-73
2023/06/04 14:07:48;;;;;;;24.00;3.80;;;;;;;;;;4863216;29;20036;-72
2023/06/04 14:10:13;;;;;;;21.23;3.17;;;;;;;;;;4862762;28;20497;-76
2023/06/04 14:12:40;;;;;;;14.65;3.47;;;;;;;;;;4878295;28;20037;-72
2023/06/04 14:15:17;;;;;;;18.05;3.13;;;;;;;;;;4860849;28;20684;-74
2023/06/04 14:17:42;;;;;;;16.23;2.60;;;;;;;;;;4863329;28;20037;-70
2023/06/04 14:20:08;;;;;;;15.07;2.80;;;;;;;;;;4862662;28;20033;-73
2023/06/04 14:22:34;;;;;;;12.68;3.05;;;;;;;;;;4880440;28;20076;-71
2023/06/04 14:25:06;;;;;;;14.40;3.35;;;;;;;;;;4860874;28;20037;-70
2023/06/04 14:27:33;;;;;;;11.13;2.53;;;;;;;;;;4864103;28;22704;-74
2023/06/04 14:29:59;;;;;;;15.38;2.83;;;;;;;;;;4862204;28;20446;-73
2023/06/04 14:32:27;;;;;;;19.38;3.45;;;;;;;;;;4862049;28;20028;-72
2023/06/04 14:34:52;;;;;;;15.20;2.90;;;;;;;;;;4864211;28;20075;-73